createdAt,value
2023-03-29T00:02:48.607Z,1.38
2023-03-29T00:05:51.125Z,1.02
2023-03-29T00:08:54.134Z,1.58
2023-03-29T00:11:55.434Z,1.25
2023-03-29T00:14:56.825Z,1.55
2023-03-29T00:17:58.240Z,1.73
2023-03-29T00:21:00.448Z,1.40
2023-03-29T00:24:01.919Z,2.00
2023-03-29T00:27:03.362Z,1.85
2023-03-29T00:30:06.339Z,1.65
2023-03-29T00:33:08.539Z,1.85
2023-03-29T00:36:10.514Z,1.65
2023-03-29T00:39:11.869Z,1.67
2023-03-29T00:42:14.024Z,1.77
2023-03-29T00:45:22.593Z,2.13
2023-03-29T00:48:26.952Z,2.22
2023-03-29T00:51:30.516Z,1.42
2023-03-29T00:54:32.882Z,2.72
2023-03-29T00:57:34.140Z,1.58
2023-03-29T01:00:37.906Z,2.45
2023-03-29T01:03:46.331Z,1.77
2023-03-29T01:07:00.585Z,1.80
2023-03-29T01:10:23.056Z,2.13
2023-03-29T01:13:28.239Z,1.77
2023-03-29T01:16:30.673Z,1.85
2023-03-29T01:19:34.249Z,2.72
2023-03-29T01:22:54.638Z,1.75
2023-03-29T01:26:12.427Z,1.55
2023-03-29T01:29:22.398Z,2.50
2023-03-29T01:32:39.923Z,2.15
2023-03-29T01:35:46.001Z,2.03
2023-03-29T01:38:50.599Z,1.80
2023-03-29T01:41:51.943Z,2.05
2023-03-29T01:45:12.582Z,2.10
2023-03-29T01:48:23.288Z,2.00
2023-03-29T01:51:35.707Z,1.77
2023-03-29T01:54:39.385Z,1.45
2023-03-29T01:57:42.523Z,1.83
2023-03-29T02:00:45.116Z,2.30
2023-03-29T02:03:49.850Z,1.38
2023-03-29T02:09:56.127Z,1.90
2023-03-29T02:12:58.430Z,2.00
2023-03-29T02:16:03.159Z,2.00
2023-03-29T02:22:09.494Z,2.13
2023-03-29T02:25:10.815Z,2.20
2023-03-29T02:28:12.583Z,1.45
2023-03-29T02:31:37.310Z,1.70
2023-03-29T02:34:40.133Z,1.83
2023-03-29T02:37:47.659Z,1.73
2023-03-29T02:40:48.976Z,1.85
2023-03-29T02:43:50.674Z,1.92
2023-03-29T02:46:55.183Z,1.75
2023-03-29T02:49:56.530Z,2.05
2023-03-29T02:52:59.693Z,1.75
2023-03-29T02:56:04.043Z,2.03
2023-03-29T02:59:05.294Z,1.65
2023-03-29T03:02:06.944Z,1.60
2023-03-29T03:05:09.271Z,1.80
2023-03-29T03:08:10.535Z,1.55
2023-03-29T03:11:11.837Z,2.15
2023-03-29T03:14:13.051Z,1.42
2023-03-29T03:17:14.320Z,1.33
2023-03-29T03:20:15.654Z,1.58
2023-03-29T03:23:17.657Z,1.63
2023-03-29T03:26:19.002Z,1.38
2023-03-29T03:29:20.280Z,1.30
2023-03-29T03:32:22.068Z,2.08
2023-03-29T03:35:23.583Z,1.60
2023-03-29T03:38:25.337Z,1.30
2023-03-29T03:41:26.962Z,1.40
2023-03-29T03:44:28.207Z,1.45
2023-03-29T03:47:30.738Z,1.90
2023-03-29T03:50:32.655Z,1.33
2023-03-29T03:53:33.957Z,1.48
2023-03-29T03:56:35.568Z,2.53
2023-03-29T03:59:36.956Z,1.40
2023-03-29T04:02:38.671Z,1.88
2023-03-29T04:05:40.547Z,1.40
2023-03-29T04:08:42.203Z,2.22
2023-03-29T04:11:43.759Z,2.45
2023-03-29T04:14:46.780Z,2.50
2023-03-29T04:17:48.158Z,2.10
2023-03-29T04:20:49.564Z,1.90
2023-03-29T04:23:50.821Z,1.83
2023-03-29T04:26:52.095Z,1.90
2023-03-29T04:29:53.338Z,2.08
2023-03-29T04:32:54.643Z,2.10
2023-03-29T04:35:56.858Z,2.13
2023-03-29T04:39:01.276Z,2.42
2023-03-29T04:42:03.356Z,2.78
2023-03-29T04:45:07.318Z,2.00
2023-03-29T04:48:08.711Z,2.13
2023-03-29T04:51:10.005Z,2.53
2023-03-29T04:54:14.007Z,1.98
2023-03-29T04:57:15.545Z,2.10
2023-03-29T05:00:17.275Z,2.40
2023-03-29T05:03:18.605Z,2.72
2023-03-29T05:06:19.860Z,2.05
2023-03-29T05:09:21.865Z,2.60
2023-03-29T05:12:23.127Z,2.55
2023-03-29T05:15:24.499Z,2.13
2023-03-29T05:18:25.894Z,2.05
2023-03-29T05:21:28.405Z,2.13
2023-03-29T05:24:29.728Z,2.67
2023-03-29T05:27:31.130Z,2.22
2023-03-29T05:30:32.522Z,2.42
2023-03-29T05:33:34.623Z,2.45
2023-03-29T05:36:35.870Z,2.40
2023-03-29T05:39:37.771Z,2.17
2023-03-29T05:42:39.193Z,1.95
2023-03-29T05:45:40.533Z,2.25
2023-03-29T05:48:42.038Z,2.15
2023-03-29T05:51:45.635Z,2.78
2023-03-29T05:54:46.965Z,2.38
2023-03-29T05:57:48.263Z,2.28
2023-03-29T06:00:49.939Z,2.13
2023-03-29T06:03:52.080Z,2.33
2023-03-29T06:06:55.054Z,2.70
2023-03-29T06:09:56.762Z,3.90
2023-03-29T06:12:58.033Z,4.38
2023-03-29T06:15:59.829Z,5.68
2023-03-29T06:19:01.372Z,4.30
2023-03-29T06:22:02.624Z,6.10
2023-03-29T06:25:05.029Z,4.90
2023-03-29T06:28:06.310Z,3.25
2023-03-29T06:31:10.144Z,1.52
2023-03-29T06:34:13.642Z,1.90
2023-03-29T06:37:14.974Z,2.00
2023-03-29T06:40:17.570Z,2.30
2023-03-29T06:43:18.833Z,1.88
2023-03-29T06:46:20.273Z,1.90
2023-03-29T06:49:21.684Z,2.75
2023-03-29T06:52:22.975Z,2.47
2023-03-29T06:55:24.859Z,2.17
2023-03-29T06:58:26.252Z,2.70
2023-03-29T07:01:28.641Z,2.95
2023-03-29T07:04:32.114Z,2.72
2023-03-29T07:07:53.341Z,3.40
2023-03-29T07:10:54.621Z,2.08
2023-03-29T07:13:56.132Z,1.88
2023-03-29T07:16:58.471Z,2.10
2023-03-29T07:19:59.754Z,1.75
2023-03-29T07:23:01.198Z,1.90
2023-03-29T07:26:02.590Z,2.00
2023-03-29T07:29:03.904Z,1.70
2023-03-29T07:32:05.706Z,1.95
2023-03-29T07:35:07.900Z,2.10
2023-03-29T07:38:09.416Z,2.30
2023-03-29T07:41:10.794Z,1.80
2023-03-29T07:44:12.035Z,2.05
2023-03-29T07:47:13.407Z,2.33
2023-03-29T07:50:14.936Z,2.53
2023-03-29T07:53:16.364Z,2.30
2023-03-29T07:56:17.684Z,1.95
2023-03-29T07:59:19.045Z,2.38
2023-03-29T08:02:21.089Z,1.88
2023-03-29T08:05:37.624Z,1.90
2023-03-29T08:08:41.847Z,2.20
2023-03-29T08:11:43.143Z,1.90
2023-03-29T08:14:44.456Z,1.98
2023-03-29T08:17:45.878Z,2.95
2023-03-29T08:20:47.176Z,2.17
2023-03-29T08:23:48.613Z,1.98
2023-03-29T08:26:49.971Z,2.17
2023-03-29T08:29:51.689Z,2.22
2023-03-29T08:32:55.143Z,3.08
2023-03-29T08:35:57.164Z,2.10
2023-03-29T08:38:58.552Z,1.85
2023-03-29T08:42:02.824Z,2.30
2023-03-29T08:45:07.879Z,2.70
2023-03-29T08:48:17.562Z,2.00
2023-03-29T08:51:27.580Z,2.00
2023-03-29T08:54:55.886Z,2.35
2023-03-29T08:57:58.369Z,2.22
2023-03-29T09:01:00.847Z,2.13
2023-03-29T09:04:22.779Z,2.03
2023-03-29T09:07:26.453Z,1.92
2023-03-29T09:10:36.238Z,2.30
2023-03-29T09:13:57.601Z,2.45
2023-03-29T09:16:58.870Z,2.08
2023-03-29T09:20:00.594Z,2.70
2023-03-29T09:23:11.006Z,2.67
2023-03-29T09:26:41.474Z,2.42
2023-03-29T09:29:42.766Z,1.75
2023-03-29T09:32:49.287Z,1.70
2023-03-29T09:35:53.266Z,2.10
2023-03-29T09:38:55.534Z,1.83
2023-03-29T09:41:59.644Z,1.73
2023-03-29T09:45:08.209Z,1.83
2023-03-29T09:48:13.756Z,1.90
2023-03-29T09:51:16.494Z,2.20
2023-03-29T09:54:17.732Z,1.75
2023-03-29T09:57:19.861Z,2.50
2023-03-29T10:00:21.505Z,2.40
2023-03-29T10:03:24.522Z,2.20
2023-03-29T10:06:26.760Z,1.52
2023-03-29T10:09:29.080Z,3.63
2023-03-29T10:12:32.865Z,2.30
2023-03-29T10:15:34.338Z,2.42
2023-03-29T10:18:42.480Z,2.55
2023-03-29T10:21:43.818Z,2.20
2023-03-29T10:24:49.893Z,2.08
2023-03-29T10:27:51.236Z,1.92
2023-03-29T10:30:54.089Z,2.15
2023-03-29T10:33:57.089Z,1.83
2023-03-29T10:36:59.620Z,1.88
2023-03-29T10:40:01.530Z,2.00
2023-03-29T10:43:14.557Z,1.65
2023-03-29T10:46:23.878Z,1.95
2023-03-29T10:49:25.573Z,2.13
2023-03-29T10:52:29.109Z,2.50
2023-03-29T10:55:34.939Z,2.40
2023-03-29T10:58:55.276Z,2.70
2023-03-29T11:01:56.610Z,2.40
2023-03-29T11:05:00.944Z,1.63
2023-03-29T11:08:05.230Z,1.60
2023-03-29T11:11:16.355Z,1.90
2023-03-29T11:14:33.230Z,1.88
2023-03-29T11:17:41.439Z,1.85
2023-03-29T11:20:48.477Z,1.75
2023-03-29T11:23:56.756Z,1.60
2023-03-29T11:27:03.894Z,2.45
2023-03-29T11:30:24.111Z,2.08
2023-03-29T11:33:37.615Z,1.90
2023-03-29T11:36:45.580Z,2.30
2023-03-29T11:39:54.990Z,1.52
2023-03-29T11:42:58.131Z,2.05
2023-03-29T11:46:07.442Z,1.80
2023-03-29T11:49:11.892Z,1.45
2023-03-29T11:52:17.465Z,1.52
2023-03-29T11:55:23.538Z,1.52
2023-03-29T11:58:32.085Z,1.90
2023-03-29T12:01:35.827Z,2.05
2023-03-29T12:04:43.330Z,1.85
2023-03-29T12:07:50.933Z,1.92
2023-03-29T12:11:04.489Z,2.17
2023-03-29T12:14:10.699Z,1.83
2023-03-29T12:17:14.359Z,2.15
2023-03-29T12:20:15.660Z,1.75
2023-03-29T12:23:17.637Z,1.90
2023-03-29T12:26:40.334Z,1.80
2023-03-29T12:29:50.094Z,1.95
2023-03-29T12:33:10.467Z,2.03
2023-03-29T12:36:20.351Z,2.40
2023-03-29T12:39:22.919Z,2.05
2023-03-29T12:42:24.384Z,2.42
2023-03-29T12:45:31.628Z,2.05
2023-03-29T12:48:34.026Z,2.33
2023-03-29T12:51:36.811Z,1.88
2023-03-29T12:54:38.106Z,2.17
2023-03-29T12:57:41.333Z,2.40
2023-03-29T13:00:44.431Z,2.10
2023-03-29T13:03:45.760Z,1.90
2023-03-29T13:06:47.042Z,1.90
2023-03-29T13:09:49.851Z,2.35
2023-03-29T13:12:51.315Z,1.80
2023-03-29T13:15:52.879Z,1.90
2023-03-29T13:18:57.040Z,2.08
2023-03-29T13:22:13.279Z,1.75
2023-03-29T13:25:34.844Z,1.85
2023-03-29T13:28:36.588Z,2.00
2023-03-29T13:31:56.148Z,1.50
2023-03-29T13:35:15.945Z,1.42
2023-03-29T13:38:27.782Z,1.55
2023-03-29T13:41:29.064Z,1.60
2023-03-29T13:44:39.578Z,1.60
2023-03-29T13:47:48.917Z,1.52
2023-03-29T13:51:02.058Z,1.90
2023-03-29T13:54:11.301Z,1.33
2023-03-29T13:57:24.632Z,1.60
2023-03-29T14:00:29.307Z,1.60
2023-03-29T14:03:34.291Z,1.60
2023-03-29T14:06:37.139Z,1.50
2023-03-29T14:09:41.220Z,1.70
2023-03-29T14:12:42.720Z,1.40
2023-03-29T14:15:51.993Z,1.50
2023-03-29T14:18:54.179Z,1.70
2023-03-29T14:21:55.650Z,1.35
2023-03-29T14:25:00.639Z,1.50
2023-03-29T14:28:01.954Z,1.48
2023-03-29T14:31:03.268Z,1.60
2023-03-29T14:34:06.701Z,1.60
2023-03-29T14:37:12.654Z,1.40
2023-03-29T14:40:20.357Z,2.08
2023-03-29T14:43:27.002Z,1.80
2023-03-29T14:46:28.616Z,1.48
2023-03-29T14:49:30.294Z,1.20
2023-03-29T14:52:31.922Z,1.70
2023-03-29T14:55:33.438Z,1.50
2023-03-29T14:58:35.582Z,1.25
2023-03-29T15:01:43.301Z,1.48
2023-03-29T15:04:44.602Z,1.35
2023-03-29T15:07:45.942Z,1.65
2023-03-29T15:10:47.429Z,1.77
2023-03-29T15:13:50.834Z,1.42
2023-03-29T15:16:54.019Z,1.70
2023-03-29T15:19:58.485Z,2.25
2023-03-29T15:23:03.462Z,1.60
2023-03-29T15:26:10.529Z,1.50
2023-03-29T15:29:13.069Z,1.65
2023-03-29T15:32:22.610Z,2.45
2023-03-29T15:35:24.702Z,2.00
2023-03-29T15:38:40.384Z,1.20
2023-03-29T15:41:45.298Z,1.67
2023-03-29T15:44:46.646Z,1.38
2023-03-29T15:47:48.132Z,1.73
2023-03-29T15:50:49.729Z,1.75
2023-03-29T15:53:51.138Z,1.40
2023-03-29T15:56:57.496Z,1.35
2023-03-29T15:59:58.889Z,2.05
2023-03-29T16:03:00.860Z,1.58
2023-03-29T16:06:04.055Z,1.38
2023-03-29T16:09:06.923Z,1.50
2023-03-29T16:12:09.111Z,1.48
2023-03-29T16:15:14.221Z,1.15
2023-03-29T16:21:20.577Z,1.40
2023-03-29T16:24:24.040Z,1.40
2023-03-29T16:27:25.776Z,1.65
2023-03-29T16:30:27.131Z,2.20
2023-03-29T16:33:28.453Z,1.23
2023-03-29T16:36:30.933Z,2.28
2023-03-29T16:39:32.204Z,1.90
2023-03-29T16:42:33.857Z,1.10
2023-03-29T16:45:35.248Z,1.25
2023-03-29T16:48:36.951Z,1.60
2023-03-29T16:51:38.269Z,1.55
2023-03-29T16:54:39.569Z,1.17
2023-03-29T16:57:44.852Z,1.20
2023-03-29T17:00:48.166Z,1.15
2023-03-29T17:03:49.911Z,1.33
2023-03-29T17:06:51.691Z,1.27
2023-03-29T17:09:53.117Z,1.45
2023-03-29T17:12:54.394Z,1.83
2023-03-29T17:15:56.176Z,2.33
2023-03-29T17:19:00.208Z,2.55
2023-03-29T17:25:06.212Z,2.25
2023-03-29T17:28:07.616Z,1.60
2023-03-29T17:31:09.030Z,1.42
2023-03-29T17:34:11.950Z,1.73
2023-03-29T17:37:13.429Z,1.65
2023-03-29T17:40:14.823Z,1.50
2023-03-29T17:43:16.107Z,1.45
2023-03-29T17:46:18.052Z,1.70
2023-03-29T17:49:19.444Z,1.20
2023-03-29T17:52:20.968Z,1.45
2023-03-29T17:55:22.356Z,1.30
2023-03-29T17:58:23.640Z,1.42
2023-03-29T18:01:25.141Z,1.83
2023-03-29T18:04:26.535Z,1.40
2023-03-29T18:07:28.676Z,1.60
2023-03-29T18:10:30.259Z,1.45
2023-03-29T18:13:31.620Z,1.42
2023-03-29T18:16:33.109Z,1.58
2023-03-29T18:19:34.454Z,2.10
2023-03-29T18:22:35.812Z,2.00
2023-03-29T18:25:37.115Z,3.40
2023-03-29T18:28:38.376Z,2.17
2023-03-29T18:31:39.821Z,2.03
2023-03-29T18:34:41.127Z,1.63
2023-03-29T18:37:42.503Z,1.52
2023-03-29T18:40:44.013Z,1.75
2023-03-29T18:43:46.783Z,1.67
2023-03-29T18:46:48.349Z,1.42
2023-03-29T18:49:49.680Z,2.20
2023-03-29T18:52:51.449Z,2.30
2023-03-29T18:55:52.806Z,2.00
2023-03-29T18:58:54.669Z,1.92
2023-03-29T19:01:56.182Z,1.70
2023-03-29T19:04:57.484Z,1.85
2023-03-29T19:07:58.817Z,2.00
2023-03-29T19:11:01.073Z,1.88
2023-03-29T19:14:03.287Z,1.80
2023-03-29T19:17:04.626Z,2.03
2023-03-29T19:20:09.854Z,1.60
2023-03-29T19:23:11.636Z,2.00
2023-03-29T19:26:13.318Z,2.35
2023-03-29T19:29:14.872Z,1.80
2023-03-29T19:32:16.183Z,2.15
2023-03-29T19:35:17.695Z,1.80
2023-03-29T19:38:19.319Z,1.70
2023-03-29T19:41:20.801Z,2.47
2023-03-29T19:44:23.514Z,2.15
2023-03-29T19:47:24.793Z,1.95
2023-03-29T19:50:26.368Z,2.22
2023-03-29T19:53:28.123Z,2.00
2023-03-29T19:56:29.455Z,2.15
2023-03-29T19:59:31.421Z,3.03
2023-03-29T20:02:32.784Z,2.13
2023-03-29T20:05:34.513Z,1.80
2023-03-29T20:08:38.692Z,1.90
2023-03-29T20:11:40.578Z,1.80
2023-03-29T20:14:43.156Z,1.98
2023-03-29T20:17:44.859Z,1.83
2023-03-29T20:20:46.852Z,2.20
2023-03-29T20:23:48.166Z,1.70
2023-03-29T20:26:49.700Z,1.90
2023-03-29T20:29:50.995Z,1.77
2023-03-29T20:32:52.323Z,1.55
2023-03-29T20:35:53.627Z,1.92
2023-03-29T20:38:56.242Z,1.90
2023-03-29T20:41:59.009Z,1.58
2023-03-29T20:45:01.287Z,1.42
2023-03-29T20:48:03.615Z,1.63
2023-03-29T20:51:11.000Z,1.55
2023-03-29T20:54:12.281Z,1.27
2023-03-29T20:57:15.700Z,1.30
2023-03-29T21:00:19.526Z,1.70
2023-03-29T21:03:20.984Z,1.58
2023-03-29T21:06:24.168Z,1.67
2023-03-29T21:09:25.558Z,1.30
2023-03-29T21:12:27.151Z,2.10
2023-03-29T21:15:30.213Z,1.73
2023-03-29T21:18:31.683Z,1.40
2023-03-29T21:21:33.572Z,1.48
2023-03-29T21:24:36.526Z,1.80
2023-03-29T21:27:37.856Z,1.63
2023-03-29T21:30:39.325Z,1.52
2023-03-29T21:33:40.773Z,1.20
2023-03-29T21:36:42.558Z,1.55
2023-03-29T21:39:43.945Z,1.52
2023-03-29T21:42:45.245Z,1.23
2023-03-29T21:45:50.233Z,1.23
2023-03-29T21:48:51.757Z,1.38
2023-03-29T21:51:53.060Z,1.33
2023-03-29T21:54:54.329Z,1.23
2023-03-29T21:57:55.620Z,1.17
2023-03-29T22:00:57.144Z,2.05
2023-03-29T22:03:58.682Z,1.45
2023-03-29T22:06:59.996Z,1.48
2023-03-29T22:10:04.043Z,1.60
2023-03-29T22:13:05.873Z,1.30
2023-03-29T22:16:07.883Z,1.30
2023-03-29T22:19:09.256Z,2.17
2023-03-29T22:22:14.127Z,1.60
2023-03-29T22:25:15.988Z,1.08
2023-03-29T22:28:17.295Z,1.73
2023-03-29T22:31:19.600Z,1.67
2023-03-29T22:34:20.997Z,1.70
2023-03-29T22:37:25.389Z,1.50
2023-03-29T22:40:26.705Z,2.35
2023-03-29T22:43:27.988Z,2.08
2023-03-29T22:46:29.343Z,1.55
2023-03-29T22:49:30.860Z,1.70
2023-03-29T22:52:32.148Z,2.03
2023-03-29T22:55:33.450Z,1.63
2023-03-29T22:58:35.349Z,1.50
2023-03-29T23:01:36.758Z,1.08
2023-03-29T23:04:38.797Z,1.42
2023-03-29T23:07:40.324Z,1.52
2023-03-29T23:10:41.909Z,1.35
2023-03-29T23:13:43.310Z,1.65
2023-03-29T23:16:44.686Z,1.85
2023-03-29T23:19:46.603Z,1.67
2023-03-29T23:22:47.859Z,1.48
2023-03-29T23:25:49.980Z,1.92
2023-03-29T23:28:51.576Z,1.60
2023-03-29T23:31:53.779Z,1.30
2023-03-29T23:34:55.108Z,1.80
2023-03-29T23:37:56.413Z,1.90
2023-03-29T23:41:00.762Z,1.67
2023-03-29T23:44:03.678Z,2.30
2023-03-29T23:47:06.002Z,1.45
2023-03-29T23:50:07.745Z,1.73
2023-03-29T23:53:09.191Z,1.52
2023-03-29T23:56:10.474Z,1.77
2023-03-29T23:59:11.873Z,1.95
